Map

Track Data

SID SEASON NUMBER BASIN SUBBASIN NAME ISO_TIME NATURE LAT LON WMO_WIND WMO_PRES WMO_AGENCY TRACK_TYPE DIST2LAND LANDFALL IFLAG USA_AGENCY USA_ATCF_ID USA_LAT USA_LON USA_RECORD USA_STATUS USA_WIND USA_PRES USA_SSHS USA_R34_NE USA_R34_SE USA_R34_SW USA_R34_NW USA_R50_NE USA_R50_SE USA_R50_SW USA_R50_NW USA_R64_NE USA_R64_SE USA_R64_SW USA_R64_NW USA_POCI USA_ROCI USA_RMW USA_EYE TOKYO_LAT TOKYO_LON TOKYO_GRADE TOKYO_WIND TOKYO_PRES TOKYO_R50_DIR TOKYO_R50_LONG TOKYO_R50_SHORT TOKYO_R30_DIR TOKYO_R30_LONG TOKYO_R30_SHORT TOKYO_LAND CMA_LAT CMA_LON CMA_CAT CMA_WIND CMA_PRES HKO_LAT HKO_LON HKO_CAT HKO_WIND HKO_PRES NEWDELHI_LAT NEWDELHI_LON NEWDELHI_GRADE NEWDELHI_WIND NEWDELHI_PRES NEWDELHI_CI NEWDELHI_DP NEWDELHI_POCI REUNION_LAT REUNION_LON REUNION_TYPE REUNION_WIND REUNION_PRES REUNION_TNUM REUNION_CI REUNION_RMW REUNION_R34_NE REUNION_R34_SE REUNION_R34_SW REUNION_R34_NW REUNION_R50_NE REUNION_R50_SE REUNION_R50_SW REUNION_R50_NW REUNION_R64_NE REUNION_R64_SE REUNION_R64_SW REUNION_R64_NW BOM_LAT BOM_LON BOM_TYPE BOM_WIND BOM_PRES BOM_TNUM BOM_CI BOM_RMW BOM_R34_NE BOM_R34_SE BOM_R34_SW BOM_R34_NW BOM_R50_NE BOM_R50_SE BOM_R50_SW BOM_R50_NW BOM_R64_NE BOM_R64_SE BOM_R64_SW BOM_R64_NW BOM_ROCI BOM_POCI BOM_EYE BOM_POS_METHOD BOM_PRES_METHOD NADI_LAT NADI_LON NADI_CAT NADI_WIND NADI_PRES WELLINGTON_LAT WELLINGTON_LON WELLINGTON_WIND WELLINGTON_PRES DS824_LAT DS824_LON DS824_STAGE DS824_WIND DS824_PRES TD9636_LAT TD9636_LON TD9636_STAGE TD9636_WIND TD9636_PRES TD9635_LAT TD9635_LON TD9635_WIND TD9635_PRES TD9635_ROCI NEUMANN_LAT NEUMANN_LON NEUMANN_CLASS NEUMANN_WIND NEUMANN_PRES MLC_LAT MLC_LON MLC_CLASS MLC_WIND MLC_PRES USA_GUST BOM_GUST BOM_GUST_PER REUNION_GUST REUNION_GUST_PER USA_SEAHGT USA_SEARAD_NE USA_SEARAD_SE USA_SEARAD_SW USA_SEARAD_NW STORM_SPEED STORM_DIR
1999140S16157 1999 33 SP EA NOT_NAMED 1999-05-20 06:00:00 NR -15.5000 156.500 main 731 672 ________O_____ -1 -15.5000 156.500 25 1002 38 98
1999140S16157 1999 33 SP EA NOT_NAMED 1999-05-20 09:00:00 NR -15.7652 158.439 main 669 614 ________P_____ -1 -15.7652 158.439 25 1004 34 98
1999140S16157 1999 33 SP MM NOT_NAMED 1999-05-20 12:00:00 NR -16.0000 160.000 main 613 560 ________O_____ -1 -16.0000 160.000 25 1006 24 101
1999140S16157 1999 33 SP MM NOT_NAMED 1999-05-20 15:00:00 NR -16.2303 160.918 main 560 493 ________P_____ -1 -16.2303 160.918 25 1004 15 114
1999140S16157 1999 33 SP MM NOT_NAMED 1999-05-20 18:00:00 NR -16.6000 161.400 main 493 413 ________O_____ -1 -16.6000 161.400 25 1003 13 140
1999140S16157 1999 33 SP MM NOT_NAMED 1999-05-20 21:00:00 NR -17.1947 161.768 main 413 338 ________P_____ -1 -17.1947 161.768 27 1001 15 158
1999140S16157 1999 33 SP MM NOT_NAMED 1999-05-21 00:00:00 NR -18.0000 162.000 main 330 229 ________O_____ -1 -18.0000 162.000 30 999 19 164
1999140S16157 1999 33 SP MM NOT_NAMED 1999-05-21 03:00:00 NR -19.0300 162.309 main 229 160 ________P_____ -1 -19.0300 162.309 35 995 21 167
1999140S16157 1999 33 SP MM NOT_NAMED 1999-05-21 06:00:00 NR -20.0000 162.500 main 160 156 ________O_____ -1 -20.0000 162.500 40 992 16 174
1999140S16157 1999 33 SP MM NOT_NAMED 1999-05-21 09:00:00 NR -20.5749 162.468 main 159 159 ________P_____ -1 -20.5749 162.468 40 992 10 191
1999140S16157 1999 33 SP MM NOT_NAMED 1999-05-21 12:00:00 NR -21.0000 162.300 main 193 193 ________O_____ -1 -21.0000 162.300 40 992 10 200
1999140S16157 1999 33 SP MM NOT_NAMED 1999-05-21 15:00:00 NR -21.5150 162.108 main 238 238 ________P_____ -1 -21.5150 162.108 40 992 11 200
1999140S16157 1999 33 SP MM NOT_NAMED 1999-05-21 18:00:00 NR -22.0000 161.900 main 289 289 ________O_____ -1 -22.0000 161.900 40 992 10 202
1999140S16157 1999 33 SP MM NOT_NAMED 1999-05-21 21:00:00 NR -22.4375 161.698 main 331 331 ________P_____ -1 -22.4375 161.698 40 992 9 199
1999140S16157 1999 33 SP MM NOT_NAMED 1999-05-22 00:00:00 NR -22.8000 161.600 main 365 365 ________O_____ -1 -22.8000 161.600 40 992 6 178
1999140S16157 1999 33 SP MM NOT_NAMED 1999-05-22 03:00:00 NR -23.0725 161.705 main 378 371 ________P_____ -1 -23.0725 161.705 40 992 6 151
1999140S16157 1999 33 SP MM NOT_NAMED 1999-05-22 06:00:00 NR -23.3000 161.900 main 374 371 ________O_____ -1 -23.3000 161.900 40 992 6 144
1999140S16157 1999 33 SP MM NOT_NAMED 1999-05-22 09:00:00 NR -23.5275 162.065 main 371 371 ________P_____ -1 -23.5275 162.065 40 992 6 151
1999140S16157 1999 33 SP MM NOT_NAMED 1999-05-22 12:00:00 NR -23.8000 162.200 main 385 385 ________O_____ -1 -23.8000 162.200 40 992 7 162
1999140S16157 1999 33 SP MM NOT_NAMED 1999-05-22 15:00:00 NR -24.1700 162.295 main 410 410 ________P_____ -1 -24.1700 162.295 40 992 8 174
1999140S16157 1999 33 SP MM NOT_NAMED 1999-05-22 18:00:00 NR -24.6000 162.300 main 445 445 ________O_____ -1 -24.6000 162.300 40 992 9 186
1999140S16157 1999 33 SP MM NOT_NAMED 1999-05-22 21:00:00 NR -25.0350 162.195 main 487 487 ________P_____ -1 -25.0350 162.195 40 992 9 197
1999140S16157 1999 33 SP MM NOT_NAMED 1999-05-23 00:00:00 NR -25.5000 162.000 40 992 wellington main 545 545 ________O_____ -1 -25.5000 162.000 40 992 10 202
1999140S16157 1999 33 SP MM NOT_NAMED 1999-05-23 03:00:00 NR -26.0001 161.758 main 603 603 ________P_____ -1 -26.0001 161.758 45 991 11 204
1999140S16157 1999 33 SP MM NOT_NAMED 1999-05-23 06:00:00 NR -26.5000 161.500 50 990 wellington main 666 666 ________O_____ -1 -26.5000 161.500 50 990 10 203
1999140S16157 1999 33 SP MM NOT_NAMED 1999-05-23 09:00:00 NR -26.9574 161.300 main 724 724 ________P_____ -1 -26.9574 161.300 50 990 10 202
1999140S16157 1999 33 SP MM NOT_NAMED 1999-05-23 12:00:00 NR -27.4000 161.100 50 990 wellington main 742 717 ________O_____ -1 -27.4000 161.100 50 990 10 204
1999140S16157 1999 33 SP MM NOT_NAMED 1999-05-23 15:00:00 NR -27.8275 160.865 main 717 684 ________P_____ -1 -27.8275 160.865 50 990 10 206
1999140S16157 1999 33 SP MM NOT_NAMED 1999-05-23 18:00:00 NR -28.3000 160.600 50 990 wellington main 684 651 ________O_____ -1 -28.3000 160.600 50 990 12 206
1999140S16157 1999 33 SP MM NOT_NAMED 1999-05-23 21:00:00 NR -28.8927 160.271 main 651 623 ________P_____ -1 -28.8927 160.271 50 990 13 204
1999140S16157 1999 33 SP MM NOT_NAMED 1999-05-24 00:00:00 NR -29.5000 160.000 50 990 wellington main 623 616 ________O_____ -1 -29.5000 160.000 50 990 12 195
1999140S16157 1999 33 SP EA NOT_NAMED 1999-05-24 03:00:00 NR -30.0524 159.912 main 623 623 ________P_____ -1 -30.0524 159.912 50 990 10 185
1999140S16157 1999 33 SP EA NOT_NAMED 1999-05-24 06:00:00 NR -30.5000 159.900 main 633 626 ________O_____ -1 -30.5000 159.900 50 990 6 187
1999140S16157 1999 33 SP EA NOT_NAMED 1999-05-24 09:00:00 NR -30.6301 159.835 main 626 626 ________P_____ -1 -30.6301 159.835 50 988 5 190
1999140S16157 1999 33 SP EA NOT_NAMED 1999-05-24 12:00:00 NR -31.0000 159.800 main 634 634 ________O_____ -1 -31.0000 159.800 50 986 15 0
1999140S16157 1999 33 SP EA NOT_NAMED 1999-05-24 15:00:00 NR -32.1651 159.813 main 644 644 ________P_____ -1 -32.1651 159.813 50 986 26 178
1999140S16157 1999 33 SP EA NOT_NAMED 1999-05-24 18:00:00 NR -33.6000 159.900 main 692 692 ________O_____ -1 -33.6000 159.900 50 986 27 175
1999140S16157 1999 33 SP MM NOT_NAMED 1999-05-24 21:00:00 NR -34.8025 160.084 main 751 751 ________P_____ -1 -34.8025 160.084 52 986 23 172
1999140S16157 1999 33 SP MM NOT_NAMED 1999-05-25 00:00:00 NR -35.9000 160.300 55 986 wellington main 815 815 ________O_____ -1 -35.9000 160.300 55 986 20 172
1999140S16157 1999 33 SP MM NOT_NAMED 1999-05-25 03:00:00 NR -36.8199 160.437 main 871 871 ________P_____ -1 -36.8199 160.437 55 986 19 173
1999140S16157 1999 33 SP MM NOT_NAMED 1999-05-25 06:00:00 NR -37.8000 160.600 55 986 wellington main 920 841 ________O_____ -1 -37.8000 160.600 55 986 22 172
1999140S16157 1999 33 SP MM NOT_NAMED 1999-05-25 09:00:00 NR -39.0298 160.829 main 841 699 ________P_____ -1 -39.0298 160.829 55 986 27 170
1999140S16157 1999 33 SP MM NOT_NAMED 1999-05-25 12:00:00 NR -40.5000 161.200 55 986 wellington main 691 533 ________O_____ -1 -40.5000 161.200 55 986 33 167
1999140S16157 1999 33 SP MM NOT_NAMED 1999-05-25 15:00:00 NR -42.2651 161.779 main 520 377 ________P_____ -1 -42.2651 161.779 55 983 36 165
1999140S16157 1999 33 SP MM NOT_NAMED 1999-05-25 18:00:00 NR -44.0000 162.500 55 980 wellington main 371 260 ________O_____ -1 -44.0000 162.500 55 980 32 161
1999140S16157 1999 33 SP MM NOT_NAMED 1999-05-25 21:00:00 NR -45.2864 163.207 main 256 192 ________P_____ -1 -45.2864 163.207 55 981 27 157
1999140S16157 1999 33 SP MM NOT_NAMED 1999-05-26 00:00:00 NR -46.5000 164.000 55 982 wellington main 195 195 ________O_____ -1 -46.5000 164.000 55 982 30 156
1999140S16157 1999 33 SP MM NOT_NAMED 1999-05-26 03:00:00 NR -47.9991 164.927 main 208 203 ________P_____ -1 -47.9991 164.927 52 980 33 156
1999140S16157 1999 33 SP MM NOT_NAMED 1999-05-26 06:00:00 NR -49.5000 166.000 50 978 wellington main 267 267 ________O_____ -1 -49.5000 166.000 50 978 30 153
1999140S16157 1999 33 SP MM NOT_NAMED 1999-05-26 09:00:00 NR -50.7070 167.091 main 378 378 ________P_____ -1 -50.7070 167.091 47 975 30 148
1999140S16157 1999 33 SP MM NOT_NAMED 1999-05-26 12:00:00 NR -52.0000 168.500 45 972 wellington main 524 524 ________O_____ -1 -52.0000 168.500 45 972 37 145
1999140S16157 1999 33 SP MM NOT_NAMED 1999-05-26 15:00:00 NR -53.7909 170.574 main 749 749 ________P_____ -1 -53.7909 170.574 45 972 44 143
1999140S16157 1999 33 SP MM NOT_NAMED 1999-05-26 18:00:00 NR -55.5000 173.000 45 972 wellington main 979 979 ________O_____ -1 -55.5000 173.000 45 972 39 137
1999140S16157 1999 33 SP MM NOT_NAMED 1999-05-26 21:00:00 NR -56.6449 175.274 main 1152 1152 ________P_____ -1 -56.6449 175.274 42 972 32 129
1999140S16157 1999 33 SP MM NOT_NAMED 1999-05-27 00:00:00 NR -57.5000 177.500 40 972 wellington main 1307 1307 ________O_____ -1 -57.5000 177.500 40 972 29 124
1999140S16157 1999 33 SP MM NOT_NAMED 1999-05-27 03:00:00 NR -58.2851 179.801 main 1458 1458 ________P_____ -1 -58.2851 179.801 35 974 28 122
1999140S16157 1999 33 SP MM NOT_NAMED 1999-05-27 06:00:00 NR -59.0000 182.000 30 976 wellington main 1460 1421 ________O_____ -1 -59.0000 -178.000 30 976 26 124
1999140S16157 1999 33 SP MM NOT_NAMED 1999-05-27 09:00:00 NR -59.7420 184.030 main 1425 1380 ________P_____ -1 -59.7420 -175.970 30 976 25 127
1999140S16157 1999 33 SP MM NOT_NAMED 1999-05-27 12:00:00 NR -60.5000 186.000 30 976 wellington main 1382 ________O_____ -1 -60.5000 -174.000 30 976 25 128

Digital Typhoon Data and Search

About IBTrACS Database

This database is a web-friendly format of International Best Track Archive for Climate Stewardship (IBTrACS), a global best track data archive curated by NOAA dating back to 1842.

Updated: 2021-12-03